ACA27MD SGAS-PANC
Flight info
| Callsign | ACA27MD |
|---|---|
| Flight time | N/A |
| Altitude | 30000 |
| Route | OBLUM OBLUM UN420 EDPAS/N0507F320 UN420 SPP UM205 AMESI/N0499F340 UM205 SIGMA UA766 KEHLI A766 SBI DCT CAAGE/N0490F350 DCT IAH/N0493F340 J33 FUZ J58 SPS J168 LAA/N0485F360 J20 OCS J163 PIH J20 SEA Q902 VIXOR/N0484F380 Q902 YZT J523 YZP Q801 MOCKA J501 EEVER Q801 JOH WITTI5 |
| Aircraft | B77W/H-SDE1E2E3FGHIJ2J3J4J5M1RWXYZ/LB1D1 |
Departure
| Time | 2026-04-25 08:59 |
|---|---|
| Airport | Silvio Pettirossi International Airport (SGAS) |
Arrival
| Time | N/A |
|---|---|
| Airport | Ted Stevens Anchorage International Airport (PANC) |
| Time | Latitude | Longitude | Altitude | Speed | Heading |
|---|---|---|---|---|---|
| 2026-04-25 07:56 | -25.24230 | -57.51568 | 291 ft | 0 kts | 104° |
| 2026-04-25 08:46 | -25.24229 | -57.51569 | 282 ft | 1 kts | 104° |
| 2026-04-25 08:46 | -25.24227 | -57.51586 | 282 ft | 3 kts | 83° |
| 2026-04-25 08:46 | -25.24233 | -57.51606 | 281 ft | 2 kts | 58° |
| 2026-04-25 08:46 | -25.24244 | -57.51620 | 283 ft | 2 kts | 38° |
| 2026-04-25 08:47 | -25.24258 | -57.51630 | 285 ft | 2 kts | 18° |
| 2026-04-25 08:47 | -25.24264 | -57.51632 | 288 ft | 0 kts | 14° |
| 2026-04-25 08:49 | -25.24263 | -57.51631 | 291 ft | 1 kts | 14° |
| 2026-04-25 08:50 | -25.24253 | -57.51629 | 291 ft | 3 kts | 8° |
| 2026-04-25 08:50 | -25.24211 | -57.51627 | 290 ft | 7 kts | 3° |
| 2026-04-25 08:50 | -25.24150 | -57.51622 | 289 ft | 8 kts | 4° |
| 2026-04-25 08:50 | -25.24084 | -57.51614 | 288 ft | 9 kts | 0° |
| 2026-04-25 08:51 | -25.24018 | -57.51638 | 286 ft | 10 kts | 330° |
| 2026-04-25 08:51 | -25.23951 | -57.51677 | 284 ft | 11 kts | 346° |
| 2026-04-25 08:51 | -25.23869 | -57.51667 | 283 ft | 11 kts | 11° |
| 2026-04-25 08:51 | -25.23788 | -57.51649 | 281 ft | 12 kts | 11° |
| 2026-04-25 08:52 | -25.23706 | -57.51631 | 280 ft | 12 kts | 14° |
| 2026-04-25 08:52 | -25.23619 | -57.51608 | 278 ft | 11 kts | 13° |
| 2026-04-25 08:52 | -25.23541 | -57.51588 | 277 ft | 10 kts | 13° |
| 2026-04-25 08:52 | -25.23470 | -57.51570 | 276 ft | 10 kts | 12° |
| 2026-04-25 08:53 | -25.23401 | -57.51554 | 275 ft | 10 kts | 12° |
| 2026-04-25 08:53 | -25.23330 | -57.51537 | 274 ft | 10 kts | 12° |
| 2026-04-25 08:53 | -25.23259 | -57.51520 | 272 ft | 10 kts | 13° |
| 2026-04-25 08:53 | -25.23187 | -57.51502 | 271 ft | 10 kts | 12° |
| 2026-04-25 08:54 | -25.23113 | -57.51484 | 270 ft | 10 kts | 12° |
| 2026-04-25 08:54 | -25.23045 | -57.51468 | 269 ft | 9 kts | 13° |
| 2026-04-25 08:54 | -25.22980 | -57.51451 | 268 ft | 9 kts | 13° |
| 2026-04-25 08:54 | -25.22913 | -57.51435 | 267 ft | 9 kts | 12° |
| 2026-04-25 08:55 | -25.22849 | -57.51420 | 266 ft | 9 kts | 12° |
| 2026-04-25 08:55 | -25.22786 | -57.51405 | 265 ft | 8 kts | 13° |
| 2026-04-25 08:55 | -25.22725 | -57.51390 | 265 ft | 8 kts | 13° |
| 2026-04-25 08:55 | -25.22666 | -57.51375 | 264 ft | 8 kts | 12° |
| 2026-04-25 08:56 | -25.22612 | -57.51364 | 263 ft | 7 kts | 1° |
| 2026-04-25 08:56 | -25.22567 | -57.51387 | 263 ft | 7 kts | 311° |
| 2026-04-25 08:56 | -25.22547 | -57.51438 | 262 ft | 7 kts | 285° |
| 2026-04-25 08:56 | -25.22535 | -57.51491 | 261 ft | 6 kts | 283° |
| 2026-04-25 08:57 | -25.22532 | -57.51536 | 261 ft | 3 kts | 250° |
| 2026-04-25 08:57 | -25.22542 | -57.51550 | 261 ft | 1 kts | 214° |
| 2026-04-25 08:57 | -25.22557 | -57.51559 | 261 ft | 3 kts | 204° |
| 2026-04-25 08:57 | -25.22596 | -57.51572 | 262 ft | 17 kts | 194° |
| 2026-04-25 08:58 | -25.22964 | -57.51663 | 266 ft | 87 kts | 192° |
| 2026-04-25 08:58 | -25.23785 | -57.51861 | 279 ft | 149 kts | 193° |
| 2026-04-25 08:58 | -25.25017 | -57.52159 | 373 ft | 195 kts | 192° |
| 2026-04-25 08:58 | -25.26334 | -57.52461 | 765 ft | 212 kts | 191° |
| 2026-04-25 08:59 | -25.27904 | -57.52755 | 1810 ft | 209 kts | 194° |
| 2026-04-25 08:59 | -25.29401 | -57.53191 | 2703 ft | 206 kts | 195° |
| 2026-04-25 08:59 | -25.30947 | -57.53604 | 2935 ft | 221 kts | 195° |
| 2026-04-25 08:59 | -25.32637 | -57.54021 | 3179 ft | 234 kts | 194° |
| 2026-04-25 09:00 | -25.34410 | -57.54452 | 3490 ft | 249 kts | 194° |
| 2026-04-25 09:00 | -25.36213 | -57.54891 | 4020 ft | 252 kts | 194° |
| 2026-04-25 09:00 | -25.38087 | -57.55406 | 4539 ft | 256 kts | 205° |
| 2026-04-25 09:00 | -25.39709 | -57.56591 | 5022 ft | 256 kts | 231° |
| 2026-04-25 09:01 | -25.40663 | -57.58312 | 5557 ft | 252 kts | 255° |
| 2026-04-25 09:01 | -25.40906 | -57.60259 | 6058 ft | 250 kts | 277° |
| 2026-04-25 09:01 | -25.40593 | -57.62230 | 6620 ft | 249 kts | 284° |
| 2026-04-25 09:01 | -25.40198 | -57.64180 | 7182 ft | 251 kts | 285° |
| 2026-04-25 09:02 | -25.39775 | -57.66146 | 7705 ft | 252 kts | 291° |
| 2026-04-25 09:02 | -25.38948 | -57.67831 | 8177 ft | 252 kts | 311° |
| 2026-04-25 09:02 | -25.37589 | -57.69090 | 8653 ft | 254 kts | 331° |
| 2026-04-25 09:02 | -25.35858 | -57.69798 | 9154 ft | 257 kts | 342° |
| 2026-04-25 09:03 | -25.34112 | -57.70319 | 9637 ft | 259 kts | 343° |
| 2026-04-25 09:03 | -25.32354 | -57.70826 | 10073 ft | 262 kts | 343° |
| 2026-04-25 09:03 | -25.30549 | -57.71345 | 10539 ft | 265 kts | 343° |
| 2026-04-25 09:03 | -25.28716 | -57.71874 | 10731 ft | 280 kts | 343° |
| 2026-04-25 09:04 | -25.26772 | -57.72436 | 10834 ft | 297 kts | 343° |
| 2026-04-25 09:04 | -25.24655 | -57.73046 | 10972 ft | 315 kts | 343° |
| 2026-04-25 09:04 | -25.22463 | -57.73677 | 11192 ft | 331 kts | 343° |
| 2026-04-25 09:04 | -25.20186 | -57.74332 | 11415 ft | 346 kts | 343° |
| 2026-04-25 09:05 | -25.17804 | -57.75018 | 11637 ft | 361 kts | 343° |
| 2026-04-25 09:05 | -25.15327 | -57.75730 | 11897 ft | 375 kts | 343° |
| 2026-04-25 09:05 | -25.12748 | -57.76472 | 12262 ft | 385 kts | 343° |
| 2026-04-25 09:05 | -25.10476 | -57.77124 | 12745 ft | 388 kts | 343° |
| 2026-04-25 09:06 | -25.08100 | -57.77806 | 13259 ft | 391 kts | 343° |
| 2026-04-25 09:06 | -25.05436 | -57.78570 | 13791 ft | 395 kts | 343° |
| 2026-04-25 09:06 | -25.02764 | -57.79337 | 14345 ft | 397 kts | 343° |
| 2026-04-25 09:06 | -25.00081 | -57.80106 | 14874 ft | 401 kts | 342° |
| 2026-04-25 09:07 | -24.97379 | -57.80881 | 15387 ft | 404 kts | 342° |
| 2026-04-25 09:07 | -24.94652 | -57.81662 | 15890 ft | 407 kts | 342° |
| 2026-04-25 09:07 | -24.91903 | -57.82450 | 16366 ft | 410 kts | 342° |
| 2026-04-25 09:07 | -24.89139 | -57.83241 | 16861 ft | 412 kts | 342° |
| 2026-04-25 09:08 | -24.86300 | -57.84053 | 17339 ft | 415 kts | 342° |
| 2026-04-25 09:08 | -24.83478 | -57.84861 | 17807 ft | 417 kts | 342° |
| 2026-04-25 09:08 | -24.80658 | -57.85667 | 18237 ft | 421 kts | 342° |
| 2026-04-25 09:08 | -24.77817 | -57.86479 | 18674 ft | 423 kts | 341° |
| 2026-04-25 09:09 | -24.74959 | -57.87296 | 19092 ft | 426 kts | 341° |
| 2026-04-25 09:09 | -24.72081 | -57.88117 | 19513 ft | 429 kts | 341° |
| 2026-04-25 09:09 | -24.69189 | -57.88943 | 19919 ft | 431 kts | 341° |
| 2026-04-25 09:09 | -24.66254 | -57.89780 | 20322 ft | 434 kts | 341° |
| 2026-04-25 09:10 | -24.63326 | -57.90615 | 20689 ft | 437 kts | 341° |
| 2026-04-25 09:10 | -24.60375 | -57.91456 | 21035 ft | 440 kts | 341° |
| 2026-04-25 09:10 | -24.57398 | -57.92304 | 21388 ft | 443 kts | 341° |
| 2026-04-25 09:10 | -24.54408 | -57.93155 | 21751 ft | 445 kts | 340° |
| 2026-04-25 09:11 | -24.48737 | -57.95724 | 22395 ft | 439 kts | 323° |
| 2026-04-25 09:11 | -24.46259 | -57.97635 | 22756 ft | 438 kts | 319° |
| 2026-04-25 09:11 | -24.43803 | -57.99664 | 23174 ft | 439 kts | 319° |
| 2026-04-25 09:12 | -24.41364 | -58.01684 | 23578 ft | 440 kts | 319° |
| 2026-04-25 09:12 | -24.38916 | -58.03710 | 23967 ft | 442 kts | 319° |
| 2026-04-25 09:12 | -24.36463 | -58.05739 | 24308 ft | 444 kts | 319° |
| 2026-04-25 09:12 | -24.33993 | -58.07781 | 24655 ft | 447 kts | 319° |
| 2026-04-25 09:13 | -24.31515 | -58.09828 | 25040 ft | 448 kts | 319° |
| 2026-04-25 09:13 | -24.29024 | -58.11884 | 25443 ft | 449 kts | 319° |
| 2026-04-25 09:13 | -24.26507 | -58.13961 | 25806 ft | 451 kts | 319° |
| 2026-04-25 09:13 | -24.24002 | -58.16026 | 26161 ft | 453 kts | 319° |
| 2026-04-25 09:14 | -24.21480 | -58.18105 | 26488 ft | 456 kts | 320° |
| 2026-04-25 09:14 | -24.18950 | -58.20188 | 26857 ft | 457 kts | 320° |
| 2026-04-25 09:14 | -24.16409 | -58.22279 | 27259 ft | 458 kts | 320° |
| 2026-04-25 09:14 | -24.13868 | -58.24369 | 27635 ft | 459 kts | 320° |
| 2026-04-25 09:15 | -24.11312 | -58.26472 | 27952 ft | 462 kts | 320° |
| 2026-04-25 09:15 | -24.08722 | -58.28600 | 28258 ft | 464 kts | 320° |
| 2026-04-25 09:15 | -24.06136 | -58.30725 | 28569 ft | 467 kts | 320° |
| 2026-04-25 09:15 | -24.03540 | -58.32856 | 28868 ft | 469 kts | 320° |
| 2026-04-25 09:16 | -24.00930 | -58.34998 | 29197 ft | 470 kts | 320° |
| 2026-04-25 09:16 | -23.98322 | -58.37136 | 29577 ft | 470 kts | 320° |
| 2026-04-25 09:16 | -23.95709 | -58.39278 | 29902 ft | 471 kts | 320° |
| 2026-04-25 09:16 | -23.93085 | -58.41428 | 29935 ft | 472 kts | 320° |
| 2026-04-25 09:17 | -23.85212 | -58.47870 | 29941 ft | 467 kts | 320° |
| 2026-04-25 09:18 | -23.80019 | -58.52129 | 29941 ft | 468 kts | 319° |
| 2026-04-25 09:18 | -23.74829 | -58.56405 | 29939 ft | 469 kts | 320° |
| 2026-04-25 09:19 | -23.69613 | -58.60697 | 29940 ft | 469 kts | 320° |
| 2026-04-25 09:19 | -23.64408 | -58.64975 | 29938 ft | 470 kts | 320° |
| 2026-04-25 09:20 | -23.59155 | -58.69287 | 29948 ft | 471 kts | 320° |
| 2026-04-25 09:20 | -23.53924 | -58.73577 | 29947 ft | 469 kts | 320° |
| 2026-04-25 09:21 | -23.48707 | -58.77850 | 29948 ft | 471 kts | 320° |
| 2026-04-25 09:21 | -23.43489 | -58.82119 | 29947 ft | 469 kts | 320° |
| 2026-04-25 09:22 | -23.38270 | -58.86386 | 29947 ft | 472 kts | 320° |
| 2026-04-25 09:22 | -23.33019 | -58.90675 | 29948 ft | 471 kts | 320° |
| 2026-04-25 09:23 | -23.27792 | -58.94939 | 29941 ft | 471 kts | 320° |
| 2026-04-25 09:23 | -23.22564 | -58.99200 | 29933 ft | 470 kts | 320° |
| 2026-04-25 09:24 | -23.17322 | -59.03468 | 29928 ft | 471 kts | 321° |
| 2026-04-25 09:24 | -23.12092 | -59.07722 | 29928 ft | 470 kts | 321° |
| 2026-04-25 09:25 | -23.06860 | -59.11974 | 29926 ft | 472 kts | 320° |
| 2026-04-25 09:25 | -23.01609 | -59.16236 | 29922 ft | 473 kts | 321° |
| 2026-04-25 09:26 | -22.96338 | -59.20510 | 29922 ft | 471 kts | 320° |
| 2026-04-25 09:26 | -22.91070 | -59.24779 | 29922 ft | 473 kts | 321° |
| 2026-04-25 09:27 | -22.85779 | -59.29060 | 29925 ft | 472 kts | 321° |
| 2026-04-25 09:27 | -22.80503 | -59.33326 | 29925 ft | 472 kts | 321° |
| 2026-04-25 09:28 | -22.75244 | -59.37574 | 29925 ft | 472 kts | 321° |
| 2026-04-25 09:28 | -22.69962 | -59.41837 | 29925 ft | 474 kts | 321° |
| 2026-04-25 09:29 | -22.64689 | -59.46087 | 29927 ft | 473 kts | 321° |
| 2026-04-25 09:29 | -22.59393 | -59.50352 | 29930 ft | 474 kts | 321° |
| 2026-04-25 09:30 | -22.54117 | -59.54597 | 29931 ft | 473 kts | 321° |
| 2026-04-25 09:30 | -22.48830 | -59.58847 | 29928 ft | 473 kts | 321° |
| 2026-04-25 09:31 | -22.43537 | -59.63097 | 29927 ft | 474 kts | 321° |
| 2026-04-25 09:31 | -22.38208 | -59.67372 | 29936 ft | 474 kts | 321° |
| 2026-04-25 09:32 | -22.32925 | -59.71611 | 29936 ft | 474 kts | 321° |
| 2026-04-25 09:32 | -22.27639 | -59.75850 | 29933 ft | 473 kts | 321° |
| 2026-04-25 09:33 | -22.22333 | -59.80102 | 29938 ft | 474 kts | 321° |
| 2026-04-25 09:33 | -22.17124 | -59.84271 | 29944 ft | 474 kts | 322° |
| 2026-04-25 09:34 | -22.11834 | -59.88502 | 29948 ft | 474 kts | 322° |
| 2026-04-25 09:34 | -22.06511 | -59.92755 | 29949 ft | 477 kts | 322° |
| 2026-04-25 09:35 | -22.01185 | -59.97005 | 29948 ft | 476 kts | 322° |
| 2026-04-25 09:35 | -21.95858 | -60.01253 | 29948 ft | 478 kts | 322° |
| 2026-04-25 09:36 | -21.90530 | -60.05497 | 29947 ft | 476 kts | 322° |
| 2026-04-25 09:36 | -21.85162 | -60.09769 | 29950 ft | 475 kts | 322° |
| 2026-04-25 09:37 | -21.79839 | -60.14002 | 29950 ft | 477 kts | 322° |
| 2026-04-25 09:37 | -21.74506 | -60.18238 | 29948 ft | 477 kts | 322° |
| 2026-04-25 09:38 | -21.69143 | -60.22494 | 29949 ft | 478 kts | 322° |
| 2026-04-25 09:38 | -21.63805 | -60.26726 | 29945 ft | 478 kts | 322° |
| 2026-04-25 09:39 | -21.58452 | -60.30967 | 29947 ft | 478 kts | 322° |
| 2026-04-25 09:39 | -21.53111 | -60.35193 | 29949 ft | 477 kts | 322° |
| 2026-04-25 09:40 | -21.45069 | -60.41549 | 29950 ft | 478 kts | 322° |
| 2026-04-25 09:40 | -21.39653 | -60.45825 | 29951 ft | 480 kts | 322° |
| 2026-04-25 09:41 | -21.34273 | -60.50069 | 29949 ft | 479 kts | 322° |
| 2026-04-25 09:41 | -21.28882 | -60.54317 | 29949 ft | 480 kts | 322° |
| 2026-04-25 09:42 | -21.23514 | -60.58543 | 29947 ft | 480 kts | 322° |
| 2026-04-25 09:42 | -21.18141 | -60.62769 | 29949 ft | 480 kts | 322° |
| 2026-04-25 09:43 | -21.12725 | -60.67025 | 29956 ft | 480 kts | 323° |
| 2026-04-25 09:43 | -21.07340 | -60.71252 | 29953 ft | 481 kts | 323° |
| 2026-04-25 09:44 | -21.01763 | -60.75196 | 29954 ft | 480 kts | 326° |
| 2026-04-25 09:44 | -20.96155 | -60.79091 | 29958 ft | 480 kts | 326° |
| 2026-04-25 09:45 | -20.90512 | -60.83025 | 29957 ft | 481 kts | 326° |
| 2026-04-25 09:45 | -20.84887 | -60.86951 | 29960 ft | 481 kts | 326° |
| 2026-04-25 09:46 | -20.79280 | -60.90867 | 29960 ft | 483 kts | 326° |
| 2026-04-25 09:46 | -20.73646 | -60.94800 | 29958 ft | 482 kts | 326° |
| 2026-04-25 09:47 | -20.68035 | -60.98715 | 29947 ft | 482 kts | 326° |
| 2026-04-25 09:47 | -20.62434 | -61.02620 | 29939 ft | 482 kts | 326° |